createdAt,value
2022-12-23T00:01:25.806Z,76.63
2022-12-23T00:03:54.054Z,76.80
2022-12-23T00:06:22.000Z,77.16
2022-12-23T00:08:49.858Z,76.99
2022-12-23T00:11:20.466Z,77.11
2022-12-23T00:14:05.483Z,76.91
2022-12-23T00:16:36.577Z,77.12
2022-12-23T00:19:04.441Z,77.16
2022-12-23T00:21:32.172Z,77.03
2022-12-23T00:23:59.931Z,76.73
2022-12-23T00:26:28.816Z,77.25
2022-12-23T00:28:58.462Z,77.36
2022-12-23T00:31:26.657Z,77.32
2022-12-23T00:33:55.757Z,77.18
2022-12-23T00:36:27.596Z,77.30
2022-12-23T00:39:13.837Z,77.24
2022-12-23T00:41:59.012Z,77.08
2022-12-23T00:44:27.434Z,77.45
2022-12-23T00:46:55.340Z,77.51
2022-12-23T00:49:42.196Z,77.30
2022-12-23T00:52:11.876Z,77.41
2022-12-23T00:54:39.975Z,77.41
2022-12-23T00:57:07.932Z,77.49
2022-12-23T00:59:35.878Z,77.12
2022-12-23T01:02:21.491Z,77.22
2022-12-23T01:05:08.480Z,77.04
2022-12-23T01:07:36.160Z,76.97
2022-12-23T01:10:04.248Z,77.27
2022-12-23T01:12:32.001Z,77.35
2022-12-23T01:14:59.698Z,77.19
2022-12-23T01:17:27.433Z,77.43
2022-12-23T01:19:56.482Z,77.33
2022-12-23T01:22:24.221Z,77.18
2022-12-23T01:24:51.901Z,77.53
2022-12-23T01:27:19.603Z,77.29
2022-12-23T01:29:47.358Z,77.19
2022-12-23T01:32:15.257Z,77.21
2022-12-23T01:34:43.007Z,77.18
2022-12-23T01:37:12.077Z,77.28
2022-12-23T01:39:39.790Z,77.29
2022-12-23T01:42:28.584Z,77.05
2022-12-23T01:44:59.860Z,77.17
2022-12-23T01:47:33.987Z,77.46
2022-12-23T01:50:07.308Z,77.26
2022-12-23T01:52:43.681Z,77.01
2022-12-23T01:55:12.665Z,77.36
2022-12-23T01:57:42.684Z,77.12
2022-12-23T02:00:30.230Z,77.07
2022-12-23T02:03:15.710Z,77.28
2022-12-23T02:05:45.895Z,77.04
2022-12-23T02:08:34.081Z,77.32
2022-12-23T02:11:24.819Z,77.46
2022-12-23T02:14:23.028Z,77.59
2022-12-23T02:17:01.960Z,77.51
2022-12-23T02:19:59.202Z,77.71
2022-12-23T02:22:44.872Z,77.58
2022-12-23T02:25:45.513Z,77.65
2022-12-23T02:28:45.408Z,77.62
2022-12-23T02:31:25.603Z,77.74
2022-12-23T02:34:00.805Z,77.71
2022-12-23T02:36:39.788Z,77.98
2022-12-23T02:39:10.209Z,78.06
2022-12-23T02:41:48.217Z,77.88
2022-12-23T02:44:22.439Z,77.68
2022-12-23T02:46:57.935Z,77.64
2022-12-23T02:49:29.830Z,77.45
2022-12-23T02:52:00.572Z,77.58
2022-12-23T02:54:31.537Z,77.88
2022-12-23T02:57:02.130Z,77.72
2022-12-23T02:59:35.275Z,77.67
2022-12-23T03:02:04.429Z,77.72
2022-12-23T03:04:32.308Z,77.85
2022-12-23T03:07:05.879Z,77.85
2022-12-23T03:09:45.581Z,77.66
2022-12-23T03:12:23.772Z,77.73
2022-12-23T03:15:09.182Z,77.65
2022-12-23T03:17:49.579Z,77.88
2022-12-23T03:20:26.478Z,77.86
2022-12-23T03:23:02.720Z,77.91
2022-12-23T03:25:37.035Z,77.90
2022-12-23T03:28:12.239Z,77.85
2022-12-23T03:30:44.175Z,77.78
2022-12-23T03:33:17.123Z,77.56
2022-12-23T03:35:50.155Z,77.67
2022-12-23T03:38:20.234Z,77.68
2022-12-23T03:40:53.079Z,77.92
2022-12-23T03:43:24.771Z,77.96
2022-12-23T03:45:58.194Z,77.69
2022-12-23T03:48:34.202Z,77.83
2022-12-23T03:51:07.219Z,78.07
2022-12-23T03:53:38.907Z,78.01
2022-12-23T03:56:11.447Z,78.04
2022-12-23T03:58:45.198Z,77.93
2022-12-23T04:01:20.931Z,77.81
2022-12-23T04:03:58.326Z,77.99
2022-12-23T04:06:31.073Z,78.23
2022-12-23T04:08:59.794Z,77.96
2022-12-23T04:11:27.508Z,77.89
2022-12-23T04:13:55.208Z,78.11
2022-12-23T04:16:23.529Z,77.88
2022-12-23T04:18:52.691Z,78.20
2022-12-23T04:21:20.449Z,78.10
2022-12-23T04:23:48.128Z,78.20
2022-12-23T04:26:15.812Z,78.39
2022-12-23T04:28:43.589Z,78.27
2022-12-23T04:31:11.335Z,78.03
2022-12-23T04:33:39.070Z,78.09
2022-12-23T04:36:08.439Z,78.14
2022-12-23T04:38:36.140Z,77.99
2022-12-23T04:41:03.859Z,77.94
2022-12-23T04:43:31.601Z,78.04
2022-12-23T04:45:59.286Z,77.82
2022-12-23T04:48:27.000Z,78.05
2022-12-23T04:50:54.705Z,78.15
2022-12-23T04:53:23.852Z,77.80
2022-12-23T04:55:52.027Z,77.64
2022-12-23T04:58:22.029Z,77.68
2022-12-23T05:00:49.910Z,77.65
2022-12-23T05:03:17.788Z,77.51
2022-12-23T05:05:45.848Z,77.61
2022-12-23T05:08:13.543Z,77.80
2022-12-23T05:10:42.555Z,77.64
2022-12-23T05:13:10.278Z,77.34
2022-12-23T05:15:37.955Z,77.87
2022-12-23T05:18:05.859Z,77.73
2022-12-23T05:20:33.517Z,77.62
2022-12-23T05:23:01.217Z,77.67
2022-12-23T05:25:28.971Z,77.79
2022-12-23T05:27:58.062Z,77.64
2022-12-23T05:30:25.773Z,77.63
2022-12-23T05:32:54.661Z,77.76
2022-12-23T05:35:22.693Z,77.95
2022-12-23T05:37:50.736Z,77.71
2022-12-23T05:40:23.898Z,77.85
2022-12-23T05:42:53.772Z,77.89
2022-12-23T05:45:22.903Z,77.60
2022-12-23T05:47:50.584Z,77.81
2022-12-23T05:50:18.375Z,77.80
2022-12-23T05:52:46.166Z,78.04
2022-12-23T05:55:13.884Z,77.74
2022-12-23T05:57:41.612Z,78.10
2022-12-23T06:00:10.635Z,78.02
2022-12-23T06:02:39.997Z,77.79
2022-12-23T06:05:08.492Z,77.65
2022-12-23T06:07:36.374Z,77.41
2022-12-23T06:10:05.767Z,77.22
2022-12-23T06:12:33.531Z,77.52
2022-12-23T06:15:01.290Z,77.41
2022-12-23T06:17:29.015Z,77.63
2022-12-23T06:19:58.123Z,77.34
2022-12-23T06:22:25.877Z,77.56
2022-12-23T06:24:53.577Z,77.65
2022-12-23T06:27:21.310Z,77.70
2022-12-23T06:29:49.262Z,77.72
2022-12-23T06:32:17.032Z,77.51
2022-12-23T06:34:44.762Z,77.28
2022-12-23T06:37:13.825Z,77.60
2022-12-23T06:39:41.547Z,77.63
2022-12-23T06:42:09.258Z,77.57
2022-12-23T06:44:36.970Z,77.32
2022-12-23T06:47:04.700Z,77.64
2022-12-23T06:49:32.465Z,77.35
2022-12-23T06:52:00.145Z,77.44
2022-12-23T06:54:29.188Z,77.33
2022-12-23T06:56:56.907Z,77.31
2022-12-23T06:59:24.643Z,77.44
2022-12-23T07:01:52.486Z,77.37
2022-12-23T07:04:20.543Z,77.56
2022-12-23T07:06:48.219Z,77.37
2022-12-23T07:09:15.991Z,77.57
2022-12-23T07:11:45.342Z,77.55
2022-12-23T07:14:13.348Z,77.71
2022-12-23T07:16:41.137Z,77.51
2022-12-23T07:19:09.129Z,77.39
2022-12-23T07:21:38.688Z,77.13
2022-12-23T07:24:07.294Z,77.31
2022-12-23T07:26:35.042Z,77.25
2022-12-23T07:29:04.697Z,77.16
2022-12-23T07:31:32.479Z,77.09
2022-12-23T07:34:00.206Z,77.71
2022-12-23T07:36:28.190Z,77.71
2022-12-23T07:38:56.282Z,77.51
2022-12-23T07:41:24.039Z,77.51
2022-12-23T07:43:51.752Z,77.50
2022-12-23T07:46:20.851Z,77.43
2022-12-23T07:48:48.621Z,77.52
2022-12-23T07:51:16.391Z,77.47
2022-12-23T07:53:44.170Z,77.39
2022-12-23T07:56:11.860Z,77.39
2022-12-23T07:58:39.569Z,77.13
2022-12-23T08:01:08.848Z,76.78
2022-12-23T08:03:38.452Z,76.04
2022-12-23T08:06:08.575Z,75.22
2022-12-23T08:08:36.917Z,74.56
2022-12-23T08:11:08.375Z,73.87
2022-12-23T08:13:38.171Z,73.02
2022-12-23T08:16:07.395Z,72.60
2022-12-23T08:18:36.687Z,72.27
2022-12-23T08:21:08.016Z,72.21
2022-12-23T08:23:36.036Z,72.85
2022-12-23T08:26:06.138Z,73.29
2022-12-23T08:28:34.703Z,73.51
2022-12-23T08:31:07.705Z,73.73
2022-12-23T08:33:36.719Z,74.26
2022-12-23T08:36:07.950Z,74.39
2022-12-23T08:38:36.404Z,74.71
2022-12-23T08:41:04.988Z,74.76
2022-12-23T08:43:36.157Z,74.98
2022-12-23T08:46:04.307Z,74.90
2022-12-23T08:48:32.549Z,74.85
2022-12-23T08:51:06.062Z,75.14
2022-12-23T08:53:34.386Z,75.22
2022-12-23T08:56:04.695Z,75.25
2022-12-23T08:58:33.081Z,75.28
2022-12-23T09:01:04.810Z,75.47
2022-12-23T09:03:32.673Z,75.45
2022-12-23T09:06:00.494Z,75.51
2022-12-23T09:08:29.592Z,75.45
2022-12-23T09:10:57.307Z,75.57
2022-12-23T09:13:32.781Z,75.67
2022-12-23T09:16:02.901Z,75.58
2022-12-23T09:18:30.687Z,75.53
2022-12-23T09:20:59.639Z,75.62
2022-12-23T09:23:27.425Z,75.70
2022-12-23T09:25:56.917Z,75.69
2022-12-23T09:28:25.833Z,75.63
2022-12-23T09:30:54.161Z,75.63
2022-12-23T09:33:21.867Z,75.65
2022-12-23T09:35:49.589Z,75.65
2022-12-23T09:38:17.302Z,75.72
2022-12-23T09:40:45.690Z,75.58
2022-12-23T09:43:26.049Z,75.75
2022-12-23T09:46:05.380Z,75.67
2022-12-23T09:48:36.880Z,75.53
2022-12-23T09:51:05.568Z,75.06
2022-12-23T09:53:47.255Z,74.27
2022-12-23T09:56:20.804Z,73.73
2022-12-23T09:58:56.612Z,73.26
2022-12-23T10:01:32.618Z,72.86
2022-12-23T10:04:30.819Z,71.75
2022-12-23T10:07:15.892Z,71.20
2022-12-23T10:09:47.322Z,70.90
2022-12-23T10:12:28.782Z,70.50
2022-12-23T10:15:03.632Z,69.88
2022-12-23T10:17:35.860Z,69.37
2022-12-23T10:20:07.230Z,69.54
2022-12-23T10:22:39.843Z,70.10
2022-12-23T10:25:16.375Z,70.64
2022-12-23T10:27:45.743Z,70.91
2022-12-23T10:30:53.535Z,71.58
2022-12-23T10:33:09.837Z,72.11
2022-12-23T10:35:50.010Z,72.36
2022-12-23T10:38:32.111Z,72.76
2022-12-23T10:41:09.637Z,73.11
2022-12-23T10:43:46.112Z,72.84
2022-12-23T10:46:25.111Z,73.21
2022-12-23T10:49:04.034Z,73.61
2022-12-23T10:51:37.299Z,73.78
2022-12-23T10:54:10.878Z,73.90
2022-12-23T10:56:38.778Z,73.91
2022-12-23T10:59:08.385Z,74.11
2022-12-23T11:01:37.801Z,74.30
2022-12-23T11:04:10.193Z,74.39
2022-12-23T11:06:42.087Z,73.86
2022-12-23T11:09:17.708Z,73.71
2022-12-23T11:12:00.336Z,73.28
2022-12-23T11:14:38.522Z,72.17
2022-12-23T11:17:20.489Z,71.77
2022-12-23T11:19:48.251Z,71.06
2022-12-23T11:22:25.036Z,70.36
2022-12-23T11:24:52.582Z,69.89
2022-12-23T11:27:20.988Z,69.86
2022-12-23T11:29:51.668Z,69.95
2022-12-23T11:32:25.582Z,70.31
2022-12-23T11:34:54.215Z,70.84
2022-12-23T11:37:30.514Z,71.35
2022-12-23T11:39:58.388Z,71.89
2022-12-23T11:42:30.570Z,72.47
2022-12-23T11:45:00.629Z,72.47
2022-12-23T11:47:42.934Z,73.06
2022-12-23T11:50:28.581Z,72.96
2022-12-23T11:53:02.434Z,73.38
2022-12-23T11:55:33.364Z,73.52
2022-12-23T11:58:02.645Z,73.66
2022-12-23T12:00:37.843Z,73.78
2022-12-23T12:03:09.333Z,74.06
2022-12-23T12:05:40.454Z,74.04
2022-12-23T12:08:17.069Z,74.43
2022-12-23T12:10:45.086Z,74.52
2022-12-23T12:13:24.835Z,74.32
2022-12-23T12:15:58.038Z,74.48
2022-12-23T12:18:27.560Z,74.36
2022-12-23T12:20:59.948Z,74.29
2022-12-23T12:23:37.704Z,74.40
2022-12-23T12:26:08.787Z,74.26
2022-12-23T12:28:40.067Z,74.45
2022-12-23T12:31:21.470Z,74.76
2022-12-23T12:33:54.333Z,74.87
2022-12-23T12:36:31.226Z,75.13
2022-12-23T12:39:00.882Z,75.02
2022-12-23T12:41:32.200Z,75.29
2022-12-23T12:44:06.810Z,75.40
2022-12-23T12:46:40.723Z,74.86
2022-12-23T12:49:21.453Z,74.47
2022-12-23T12:51:55.286Z,73.87
2022-12-23T12:54:28.180Z,72.97
2022-12-23T12:56:57.518Z,72.18
2022-12-23T12:59:28.247Z,71.63
2022-12-23T13:02:22.980Z,70.61
2022-12-23T13:05:18.289Z,70.88
2022-12-23T13:07:57.586Z,70.84
2022-12-23T13:10:38.001Z,71.71
2022-12-23T13:13:21.387Z,71.68
2022-12-23T13:15:54.986Z,72.34
2022-12-23T13:18:35.133Z,72.66
2022-12-23T13:21:08.994Z,72.98
2022-12-23T13:23:44.453Z,73.44
2022-12-23T13:26:23.155Z,74.48
2022-12-23T13:29:00.106Z,74.42
2022-12-23T13:31:37.383Z,74.68
2022-12-23T13:34:17.489Z,74.32
2022-12-23T13:36:57.642Z,74.40
2022-12-23T13:39:39.294Z,74.44
2022-12-23T13:42:13.402Z,74.23
2022-12-23T13:44:41.491Z,74.46
2022-12-23T13:47:16.340Z,74.68
2022-12-23T13:49:55.634Z,74.48
2022-12-23T13:52:35.232Z,74.64
2022-12-23T13:55:13.020Z,74.66
2022-12-23T13:57:52.707Z,74.57
2022-12-23T14:00:27.080Z,74.76
2022-12-23T14:03:20.764Z,74.84
2022-12-23T14:05:50.663Z,74.90
2022-12-23T14:08:28.043Z,74.74
2022-12-23T14:10:58.571Z,74.97
2022-12-23T14:13:29.335Z,75.02
2022-12-23T14:16:29.820Z,75.18
2022-12-23T14:19:24.816Z,75.27
2022-12-23T14:22:02.007Z,75.38
2022-12-23T14:24:50.784Z,75.12
2022-12-23T14:27:35.639Z,75.43
2022-12-23T14:30:12.513Z,75.36
2022-12-23T14:32:51.539Z,75.47
2022-12-23T14:35:49.343Z,75.65
2022-12-23T14:38:24.864Z,75.29
2022-12-23T14:41:19.041Z,75.46
2022-12-23T14:43:55.734Z,75.50
2022-12-23T14:46:56.458Z,75.60
2022-12-23T14:49:40.459Z,75.41
2022-12-23T14:52:48.027Z,75.82
2022-12-23T14:55:40.559Z,75.80
2022-12-23T14:58:27.608Z,76.06
2022-12-23T15:01:02.107Z,76.16
2022-12-23T15:03:34.208Z,76.35
2022-12-23T15:06:07.150Z,76.32
2022-12-23T15:08:38.724Z,76.26
2022-12-23T15:11:09.040Z,76.11
2022-12-23T15:13:39.066Z,76.28
2022-12-23T15:16:07.538Z,76.28
2022-12-23T15:18:35.279Z,76.44
2022-12-23T15:21:04.448Z,76.42
2022-12-23T15:23:33.298Z,76.36
2022-12-23T15:26:02.591Z,76.34
2022-12-23T15:28:38.336Z,76.56
2022-12-23T15:31:17.138Z,76.43
2022-12-23T15:34:04.868Z,76.27
2022-12-23T15:36:37.294Z,76.30
2022-12-23T15:39:11.057Z,75.96
2022-12-23T15:41:46.041Z,75.24
2022-12-23T15:44:16.499Z,74.88
2022-12-23T15:46:45.682Z,74.15
2022-12-23T15:49:13.850Z,73.75
2022-12-23T15:54:36.781Z,73.66
2022-12-23T15:57:05.807Z,73.51
2022-12-23T15:59:37.726Z,74.35
2022-12-23T16:02:59.625Z,73.87
2022-12-23T16:05:06.902Z,74.97
2022-12-23T16:07:36.932Z,74.67
2022-12-23T16:10:06.359Z,74.88
2022-12-23T16:12:35.737Z,75.79
2022-12-23T16:15:04.646Z,75.79
2022-12-23T16:17:35.240Z,76.03
2022-12-23T16:20:22.256Z,75.85
2022-12-23T16:22:52.889Z,76.49
2022-12-23T16:25:24.810Z,76.41
2022-12-23T16:27:57.719Z,76.41
2022-12-23T16:30:30.369Z,76.84
2022-12-23T16:33:02.238Z,76.69
2022-12-23T16:35:36.774Z,76.89
2022-12-23T16:38:17.196Z,76.94
2022-12-23T16:40:46.657Z,76.79
2022-12-23T16:43:14.827Z,76.95
2022-12-23T16:45:44.024Z,77.14
2022-12-23T16:48:20.544Z,77.12
2022-12-23T16:50:55.487Z,77.58
2022-12-23T16:53:23.239Z,77.72
2022-12-23T16:55:56.673Z,77.74
2022-12-23T16:58:27.631Z,77.59
2022-12-23T17:00:55.506Z,77.52
2022-12-23T17:03:24.735Z,77.93
2022-12-23T17:05:52.495Z,77.81
2022-12-23T17:08:20.471Z,77.77
2022-12-23T17:10:49.151Z,77.76
2022-12-23T17:13:19.525Z,78.07
2022-12-23T17:15:48.046Z,77.47
2022-12-23T17:18:18.561Z,77.72
2022-12-23T17:20:49.531Z,77.93
2022-12-23T17:23:26.732Z,77.47
2022-12-23T17:25:54.743Z,77.66
2022-12-23T17:28:23.024Z,77.70
2022-12-23T17:30:55.062Z,77.59
2022-12-23T17:33:25.426Z,77.45
2022-12-23T17:35:55.820Z,77.62
2022-12-23T17:38:24.163Z,77.52
2022-12-23T17:40:52.292Z,77.31
2022-12-23T17:43:20.339Z,77.60
2022-12-23T17:45:48.456Z,77.39
2022-12-23T17:48:22.290Z,77.20
2022-12-23T17:50:52.143Z,77.33
2022-12-23T17:53:21.231Z,77.34
2022-12-23T17:55:48.952Z,77.18
2022-12-23T17:58:16.690Z,77.35
2022-12-23T18:00:44.643Z,77.20
2022-12-23T18:03:23.239Z,77.12
2022-12-23T18:05:57.288Z,77.29
2022-12-23T18:08:30.258Z,77.16
2022-12-23T18:10:59.359Z,76.52
2022-12-23T18:13:27.147Z,75.99
2022-12-23T18:15:54.875Z,75.17
2022-12-23T18:18:33.022Z,74.29
2022-12-23T18:21:06.490Z,73.60
2022-12-23T18:23:37.185Z,73.11
2022-12-23T18:26:05.111Z,73.11
2022-12-23T18:28:32.843Z,73.47
2022-12-23T18:31:00.657Z,73.68
2022-12-23T18:33:30.205Z,74.16
2022-12-23T18:35:57.966Z,73.93
2022-12-23T18:38:25.712Z,74.15
2022-12-23T18:40:56.640Z,74.76
2022-12-23T18:43:26.634Z,74.79
2022-12-23T18:45:54.562Z,74.71
2022-12-23T18:48:22.599Z,74.72
2022-12-23T18:50:50.378Z,74.68
2022-12-23T18:53:24.335Z,74.56
2022-12-23T18:55:54.992Z,74.55
2022-12-23T18:58:23.199Z,74.94
2022-12-23T19:00:52.679Z,75.15
2022-12-23T19:03:23.844Z,75.34
2022-12-23T19:05:53.371Z,75.33
2022-12-23T19:08:26.775Z,75.55
2022-12-23T19:10:56.893Z,75.56
2022-12-23T19:13:24.679Z,75.67
2022-12-23T19:15:52.456Z,75.34
2022-12-23T19:18:22.788Z,75.51
2022-12-23T19:20:50.749Z,75.61
2022-12-23T19:23:18.622Z,75.52
2022-12-23T19:25:54.467Z,75.88
2022-12-23T19:28:27.103Z,75.69
2022-12-23T19:30:54.853Z,75.47
2022-12-23T19:33:22.660Z,75.81
2022-12-23T19:35:50.464Z,75.61
2022-12-23T19:38:18.188Z,75.68
2022-12-23T19:40:45.869Z,75.85
2022-12-23T19:43:13.567Z,75.94
2022-12-23T19:45:42.663Z,75.97
2022-12-23T19:48:10.410Z,76.08
2022-12-23T19:50:38.091Z,75.70
2022-12-23T19:53:05.791Z,75.87
2022-12-23T19:55:33.579Z,75.77
2022-12-23T19:58:01.287Z,75.94
2022-12-23T20:00:29.048Z,76.08
2022-12-23T20:02:59.209Z,76.37
2022-12-23T20:05:27.229Z,76.45
2022-12-23T20:07:54.976Z,76.34
2022-12-23T20:10:22.692Z,76.41
2022-12-23T20:12:50.435Z,76.64
2022-12-23T20:15:18.344Z,76.50
2022-12-23T20:17:46.065Z,76.45
2022-12-23T20:20:15.326Z,76.74
2022-12-23T20:22:43.089Z,76.48
2022-12-23T20:25:11.088Z,76.65
2022-12-23T20:27:38.976Z,76.83
2022-12-23T20:30:08.123Z,76.60
2022-12-23T20:32:35.824Z,76.73
2022-12-23T20:35:03.544Z,76.72
2022-12-23T20:37:32.651Z,76.46
2022-12-23T20:40:00.534Z,76.44
2022-12-23T20:42:28.281Z,76.55
2022-12-23T20:44:55.994Z,76.48
2022-12-23T20:47:23.693Z,76.37
2022-12-23T20:49:51.450Z,76.29
2022-12-23T20:52:19.171Z,76.33
2022-12-23T20:54:48.234Z,76.26
2022-12-23T20:57:15.969Z,76.48
2022-12-23T20:59:43.728Z,76.13
2022-12-23T21:02:13.376Z,76.26
2022-12-23T21:04:41.431Z,76.48
2022-12-23T21:07:09.912Z,75.99
2022-12-23T21:09:37.627Z,76.20
2022-12-23T21:12:07.081Z,76.29
2022-12-23T21:14:35.035Z,76.03
2022-12-23T21:17:02.797Z,76.03
2022-12-23T21:19:30.644Z,76.24
2022-12-23T21:21:58.651Z,75.94
2022-12-23T21:24:26.702Z,75.90
2022-12-23T21:26:56.853Z,75.78
2022-12-23T21:29:26.879Z,75.57
2022-12-23T21:31:55.163Z,75.41
2022-12-23T21:34:23.336Z,75.73
2022-12-23T21:36:51.163Z,75.61
2022-12-23T21:39:19.860Z,75.53
2022-12-23T21:41:49.177Z,75.71
2022-12-23T21:44:16.930Z,75.42
2022-12-23T21:46:46.080Z,75.30
2022-12-23T21:49:14.074Z,75.19
2022-12-23T21:51:42.324Z,75.31
2022-12-23T21:54:11.544Z,75.60
2022-12-23T21:56:40.688Z,75.25
2022-12-23T21:59:12.271Z,75.23
2022-12-23T22:01:40.814Z,75.20
2022-12-23T22:04:09.965Z,74.85
2022-12-23T22:06:39.464Z,74.75
2022-12-23T22:09:08.441Z,74.77
2022-12-23T22:11:37.845Z,74.96
2022-12-23T22:14:08.035Z,74.80
2022-12-23T22:16:36.781Z,75.04
2022-12-23T22:19:07.169Z,74.76
2022-12-23T22:21:37.237Z,74.65
2022-12-23T22:24:05.730Z,74.51
2022-12-23T22:26:34.710Z,74.42
2022-12-23T22:29:05.215Z,74.33
2022-12-23T22:31:36.831Z,74.42
2022-12-23T22:34:06.261Z,74.28
2022-12-23T22:36:36.106Z,74.11
2022-12-23T22:39:04.333Z,74.05
2022-12-23T22:41:32.741Z,73.52
2022-12-23T22:44:00.947Z,74.24
2022-12-23T22:46:29.042Z,74.17
2022-12-23T22:48:57.176Z,73.70
2022-12-23T22:51:26.690Z,73.75
2022-12-23T22:53:56.362Z,73.70
2022-12-23T22:56:25.585Z,73.55
2022-12-23T22:58:54.185Z,73.45
2022-12-23T23:01:23.485Z,73.63
2022-12-23T23:03:56.876Z,73.65
2022-12-23T23:06:25.972Z,73.53
2022-12-23T23:08:55.520Z,73.05
2022-12-23T23:11:23.748Z,73.61
2022-12-23T23:13:51.884Z,73.10
2022-12-23T23:16:20.239Z,73.10
2022-12-23T23:18:48.021Z,73.13
2022-12-23T23:21:16.439Z,72.77
2022-12-23T23:23:44.221Z,72.89
2022-12-23T23:26:14.065Z,73.13
2022-12-23T23:28:42.368Z,73.27
2022-12-23T23:31:40.661Z,72.92
2022-12-23T23:33:58.679Z,72.81
2022-12-23T23:36:26.504Z,72.95
2022-12-23T23:38:54.326Z,72.87
2022-12-23T23:41:24.264Z,73.01
2022-12-23T23:43:52.562Z,72.83
2022-12-23T23:46:20.547Z,73.10
2022-12-23T23:48:48.609Z,73.00
2022-12-23T23:51:16.416Z,73.45
2022-12-23T23:53:44.177Z,73.25
2022-12-23T23:56:11.956Z,73.24
2022-12-23T23:58:41.560Z,73.03
